createdAt,value
2023-05-04T05:03:05.788Z,0.50
2023-05-04T05:04:05.770Z,0.50
2023-05-04T05:05:07.046Z,0.50
2023-05-04T05:06:06.818Z,0.50
2023-05-04T05:07:06.847Z,0.50
2023-05-04T05:08:06.889Z,0.50
2023-05-04T05:09:06.969Z,0.34
2023-05-04T05:10:06.063Z,0.34
2023-05-04T05:11:06.992Z,0.34
2023-05-04T05:12:07.017Z,0.34
2023-05-04T05:13:06.072Z,0.34
2023-05-04T05:14:06.015Z,0.34
2023-05-04T05:15:07.016Z,0.34
2023-05-04T05:16:06.170Z,0.34
2023-05-04T05:17:07.096Z,0.34
2023-05-04T05:18:07.231Z,0.34
2023-05-04T05:19:07.158Z,0.34
2023-05-04T05:20:07.255Z,0.34
2023-05-04T05:21:06.268Z,0.34
2023-05-04T05:22:07.335Z,0.34
2023-05-04T05:23:06.378Z,0.34
2023-05-04T05:24:06.442Z,0.39
2023-05-04T05:25:07.538Z,0.45
2023-05-04T05:26:06.581Z,0.50
2023-05-04T05:27:06.618Z,0.50
2023-05-04T05:28:06.683Z,0.50
2023-05-04T05:29:07.764Z,0.50
2023-05-04T05:30:07.134Z,0.50
2023-05-04T05:31:07.958Z,0.50
2023-05-04T05:32:06.934Z,0.50
2023-05-04T05:33:08.026Z,0.50
2023-05-04T05:34:08.045Z,0.50
2023-05-04T05:35:08.187Z,0.50
2023-05-04T05:36:08.173Z,0.50
2023-05-04T05:37:08.324Z,0.51
2023-05-04T05:38:08.288Z,0.51
2023-05-04T05:39:07.342Z,0.50
2023-05-04T05:40:08.482Z,0.50
2023-05-04T05:41:08.482Z,0.51
2023-05-04T05:42:07.540Z,0.51
2023-05-04T05:43:07.607Z,0.50
2023-05-04T05:44:08.719Z,0.51
2023-05-04T05:45:08.711Z,0.51
2023-05-04T05:46:08.803Z,0.51
2023-05-04T05:47:08.834Z,0.50
2023-05-04T05:48:07.937Z,0.50
2023-05-04T05:49:08.948Z,0.50
2023-05-04T05:50:09.005Z,0.50
2023-05-04T05:51:09.119Z,0.51
2023-05-04T05:52:09.143Z,0.50
2023-05-04T05:53:09.180Z,0.50
2023-05-04T05:54:08.241Z,0.51
2023-05-04T05:55:09.312Z,0.51
2023-05-04T05:56:08.377Z,0.52
2023-05-04T05:57:09.412Z,0.51
2023-05-04T05:58:08.478Z,0.50
2023-05-04T05:59:09.552Z,0.51
2023-05-04T06:00:09.601Z,0.50
2023-05-04T06:01:09.667Z,0.51
2023-05-04T06:02:09.770Z,0.50
2023-05-04T06:03:09.897Z,0.51
2023-05-04T06:04:09.035Z,0.50
2023-05-04T06:05:09.911Z,0.51
2023-05-04T06:06:09.962Z,0.52
2023-05-04T06:07:10.032Z,0.51
2023-05-04T06:08:10.076Z,0.51
2023-05-04T06:09:10.110Z,0.50
2023-05-04T06:10:09.168Z,0.50
2023-05-04T06:11:10.225Z,0.50
2023-05-04T06:12:10.271Z,0.51
2023-05-04T06:13:09.408Z,0.51
2023-05-04T06:14:09.392Z,0.52
2023-05-04T06:15:09.417Z,0.51
2023-05-04T06:16:10.495Z,0.51
2023-05-04T06:17:10.729Z,0.52
2023-05-04T06:18:09.602Z,0.53
2023-05-04T06:19:10.618Z,0.53
2023-05-04T06:20:09.656Z,0.54
2023-05-04T06:21:09.701Z,0.55
2023-05-04T06:22:09.745Z,0.53
2023-05-04T06:23:10.886Z,0.54
2023-05-04T06:24:10.832Z,0.55
2023-05-04T06:25:09.864Z,0.54
2023-05-04T06:26:09.897Z,0.56
2023-05-04T06:27:09.918Z,0.55
2023-05-04T06:28:10.941Z,0.55
2023-05-04T06:29:10.994Z,0.57
2023-05-04T06:30:11.019Z,0.57
2023-05-04T06:31:10.088Z,0.57
2023-05-04T06:32:10.111Z,0.58
2023-05-04T06:33:11.139Z,0.58
2023-05-04T06:34:11.116Z,0.58
2023-05-04T06:35:11.130Z,0.58
2023-05-04T06:36:11.142Z,0.58
2023-05-04T06:37:12.348Z,0.59
2023-05-04T06:38:10.168Z,0.61
2023-05-04T06:39:11.174Z,0.60
2023-05-04T06:40:11.283Z,0.61
2023-05-04T06:41:10.119Z,0.63
2023-05-04T06:42:10.130Z,0.63
2023-05-04T06:43:11.111Z,0.63
2023-05-04T06:44:10.135Z,0.62
2023-05-04T06:45:11.105Z,0.63
2023-05-04T06:46:11.128Z,0.62
2023-05-04T06:47:10.089Z,0.64
2023-05-04T06:48:10.137Z,0.63
2023-05-04T06:49:11.088Z,0.63
2023-05-04T06:50:11.087Z,0.64
2023-05-04T06:51:11.076Z,0.66
2023-05-04T06:52:10.061Z,0.63
2023-05-04T06:53:10.079Z,0.65
2023-05-04T06:54:11.042Z,0.67
2023-05-04T06:55:10.071Z,0.67
2023-05-04T06:56:10.389Z,0.67
2023-05-04T06:57:11.036Z,0.67
2023-05-04T06:58:11.022Z,0.67
2023-05-04T06:59:11.018Z,0.68
2023-05-04T07:00:11.014Z,0.69
2023-05-04T07:01:11.025Z,0.69
2023-05-04T07:02:11.889Z,0.70
2023-05-04T07:03:11.193Z,0.70
2023-05-04T07:04:10.044Z,0.70
2023-05-04T07:05:10.978Z,0.72
2023-05-04T07:06:10.960Z,0.69
2023-05-04T07:07:10.953Z,0.72
2023-05-04T07:08:09.951Z,0.74
2023-05-04T07:09:10.941Z,0.70
2023-05-04T07:10:09.929Z,0.72
2023-05-04T07:11:10.959Z,0.72
2023-05-04T07:12:10.924Z,0.72
2023-05-04T07:13:10.990Z,0.73
2023-05-04T07:14:10.901Z,0.73
2023-05-04T07:15:10.884Z,0.73
2023-05-04T07:16:10.960Z,0.75
2023-05-04T07:17:09.883Z,0.74
2023-05-04T07:18:10.886Z,0.75
2023-05-04T07:19:09.863Z,0.77
2023-05-04T07:20:10.862Z,0.77
2023-05-04T07:21:26.172Z,0.75
2023-05-04T07:22:10.841Z,0.75
2023-05-04T07:23:10.823Z,0.76
2023-05-04T07:24:09.817Z,0.76
2023-05-04T07:25:10.821Z,0.77
2023-05-04T07:26:09.814Z,0.75
2023-05-04T07:27:10.857Z,0.79
2023-05-04T07:28:10.801Z,0.79
2023-05-04T07:29:09.790Z,0.81
2023-05-04T07:30:09.785Z,0.80
2023-05-04T07:31:09.769Z,0.79
2023-05-04T07:32:10.823Z,0.80
2023-05-04T07:33:09.810Z,0.81
2023-05-04T07:34:09.750Z,0.81
2023-05-04T07:35:09.751Z,0.83
2023-05-04T07:36:10.737Z,0.84
2023-05-04T07:37:09.736Z,0.82
2023-05-04T07:38:10.731Z,0.81
2023-05-04T07:39:10.748Z,0.83
2023-05-04T07:40:10.706Z,0.82
2023-05-04T07:41:10.724Z,0.82
2023-05-04T07:42:10.702Z,0.84
2023-05-04T07:43:10.729Z,0.85
2023-05-04T07:44:09.695Z,0.84
2023-05-04T07:45:09.685Z,0.83
2023-05-04T07:46:10.893Z,0.85
2023-05-04T07:47:10.677Z,0.85
2023-05-04T07:48:09.689Z,0.84
2023-05-04T07:49:09.652Z,0.86
2023-05-04T07:50:10.686Z,0.86
2023-05-04T07:51:09.645Z,0.86
2023-05-04T07:52:10.674Z,0.84
2023-05-04T07:53:09.711Z,0.87
2023-05-04T07:54:09.735Z,0.87
2023-05-04T07:55:10.775Z,0.84
2023-05-04T07:56:10.751Z,0.86
2023-05-04T07:57:10.766Z,0.80
2023-05-04T07:58:10.774Z,0.70
2023-05-04T08:04:23.564Z,0.50
2023-05-04T08:05:24.476Z,0.50
2023-05-04T08:06:24.491Z,0.50
2023-05-04T08:07:23.478Z,0.50
2023-05-04T08:08:23.473Z,0.50
2023-05-04T08:09:24.471Z,0.50
2023-05-04T08:10:23.486Z,0.50
2023-05-04T08:11:24.466Z,0.50
2023-05-04T08:12:24.468Z,0.51
2023-05-04T08:13:24.451Z,0.50
2023-05-04T08:14:24.464Z,0.50
2023-05-04T08:15:24.425Z,0.50
2023-05-04T08:16:23.493Z,0.50
2023-05-04T08:17:23.442Z,0.50
2023-05-04T08:18:23.392Z,0.50
2023-05-04T08:19:23.731Z,0.50
2023-05-04T08:20:24.043Z,0.52
2023-05-04T08:21:23.395Z,0.51
2023-05-04T08:22:23.366Z,0.50
2023-05-04T08:23:23.374Z,0.50
2023-05-04T08:24:23.360Z,0.51
2023-05-04T08:25:24.355Z,0.50
2023-05-04T08:26:24.356Z,0.50
2023-05-04T08:27:23.355Z,0.53
2023-05-04T08:28:24.324Z,0.51
2023-05-04T08:29:23.329Z,0.50
2023-05-04T08:30:23.378Z,0.49
2023-05-04T08:31:24.345Z,0.50
2023-05-04T08:32:23.334Z,0.50
2023-05-04T08:33:24.326Z,0.53
2023-05-04T08:34:24.293Z,0.54
2023-05-04T08:35:24.281Z,0.52
2023-05-04T08:36:24.330Z,0.51
2023-05-04T08:37:24.276Z,0.50
2023-05-04T08:38:24.267Z,0.53
2023-05-04T08:39:24.261Z,0.51
2023-05-04T08:40:24.354Z,0.50
2023-05-04T08:41:23.277Z,0.46
2023-05-04T08:42:23.246Z,0.51
2023-05-04T08:43:24.267Z,0.50
2023-05-04T08:44:24.226Z,0.54
2023-05-04T08:45:23.218Z,0.55
2023-05-04T08:46:24.285Z,0.57
2023-05-04T08:47:23.243Z,0.59
2023-05-04T08:48:23.187Z,0.62
2023-05-04T08:49:24.203Z,0.66
2023-05-04T08:50:23.192Z,0.62
2023-05-04T08:51:23.179Z,0.59
2023-05-04T08:52:23.241Z,0.57
2023-05-04T08:53:24.260Z,0.60
2023-05-04T08:54:23.259Z,0.59
2023-05-04T08:55:24.322Z,0.57
2023-05-04T08:56:23.344Z,0.61
2023-05-04T08:57:24.704Z,0.58
2023-05-04T08:58:24.386Z,0.54
2023-05-04T08:59:24.400Z,0.56
2023-05-04T09:00:23.519Z,0.55
2023-05-04T09:01:24.472Z,0.58
2023-05-04T09:02:24.551Z,0.58
2023-05-04T09:03:24.589Z,0.62
2023-05-04T09:04:25.515Z,0.63
2023-05-04T09:05:24.568Z,0.65
2023-05-04T09:06:24.586Z,0.62
2023-05-04T09:07:23.574Z,0.65
2023-05-04T09:08:23.730Z,0.66
2023-05-04T09:09:24.543Z,0.68
2023-05-04T09:10:25.288Z,0.68
2023-05-04T09:11:24.527Z,0.69
2023-05-04T09:12:24.517Z,0.69
2023-05-04T09:13:23.520Z,0.71
2023-05-04T09:14:24.501Z,0.67
2023-05-04T09:15:24.498Z,0.67
2023-05-04T09:16:23.527Z,0.66
2023-05-04T09:17:23.493Z,0.64
2023-05-04T09:18:24.499Z,0.71
2023-05-04T09:19:24.466Z,0.75
2023-05-04T09:20:23.465Z,0.72
2023-05-04T09:21:23.454Z,0.70
2023-05-04T09:22:24.564Z,0.66
2023-05-04T09:23:24.517Z,0.57
2023-05-04T09:24:24.571Z,0.64
2023-05-04T09:25:24.445Z,0.70
2023-05-04T09:26:23.420Z,0.69
2023-05-04T09:27:24.425Z,0.79
2023-05-04T09:28:24.413Z,0.73
2023-05-04T09:29:24.423Z,0.75
2023-05-04T09:30:23.429Z,0.74
2023-05-04T09:31:24.498Z,0.76
2023-05-04T09:32:24.438Z,0.65
2023-05-04T09:33:24.386Z,0.63
2023-05-04T09:34:23.372Z,0.66
2023-05-04T09:35:32.533Z,0.58
2023-05-04T09:36:24.363Z,0.59
2023-05-04T09:37:24.379Z,0.60
2023-05-04T09:38:24.339Z,0.60
2023-05-04T09:39:23.342Z,0.63
2023-05-04T09:40:23.348Z,0.65
2023-05-04T09:41:24.324Z,0.77
2023-05-04T09:42:23.319Z,0.82
2023-05-04T09:43:24.317Z,0.74
2023-05-04T09:44:24.299Z,0.71
2023-05-04T09:45:24.278Z,0.70
2023-05-04T09:46:24.318Z,0.71
2023-05-04T09:47:24.757Z,0.71
2023-05-04T09:48:24.263Z,0.75
2023-05-04T09:49:24.273Z,0.73
2023-05-04T09:50:23.431Z,0.71
2023-05-04T09:51:24.278Z,0.76
2023-05-04T09:52:24.727Z,0.80
2023-05-04T09:53:24.232Z,0.81
2023-05-04T09:54:24.216Z,0.80
2023-05-04T09:55:24.226Z,0.76
2023-05-04T09:56:24.257Z,0.75
2023-05-04T09:57:24.201Z,0.73
2023-05-04T09:58:23.189Z,0.69
2023-05-04T09:59:23.194Z,0.68
2023-05-04T10:00:23.219Z,0.68
2023-05-04T10:01:24.196Z,0.70
2023-05-04T10:02:24.229Z,0.69
2023-05-04T10:03:24.232Z,0.68
2023-05-04T10:04:24.166Z,0.67
2023-05-04T10:05:24.213Z,0.68
2023-05-04T10:06:24.145Z,0.67
2023-05-04T10:07:24.163Z,0.70
2023-05-04T10:08:24.152Z,0.67
2023-05-04T10:09:24.130Z,0.65
2023-05-04T10:10:24.119Z,0.63
2023-05-04T10:11:24.164Z,0.59
2023-05-04T10:12:24.278Z,0.61
2023-05-04T10:13:24.106Z,0.61
2023-05-04T10:14:24.110Z,0.58
2023-05-04T10:15:23.094Z,0.60
2023-05-04T10:16:23.248Z,0.62
2023-05-04T10:17:24.176Z,0.62
2023-05-04T10:18:23.066Z,0.64
2023-05-04T10:19:24.068Z,0.66
2023-05-04T10:20:24.089Z,0.70
2023-05-04T10:21:24.122Z,0.69
2023-05-04T10:22:24.101Z,0.67
2023-05-04T10:23:24.019Z,0.66
2023-05-04T10:24:23.028Z,0.66
2023-05-04T10:25:24.143Z,0.64
2023-05-04T10:26:22.998Z,0.65
2023-05-04T10:27:24.097Z,0.66
2023-05-04T10:28:23.060Z,0.64
2023-05-04T10:29:24.196Z,0.65
2023-05-04T10:30:23.985Z,0.65
2023-05-04T10:31:23.031Z,0.63
2023-05-04T10:32:23.078Z,0.62
2023-05-04T10:33:23.970Z,0.58
2023-05-04T10:34:23.729Z,0.55
2023-05-04T10:35:23.951Z,0.50
2023-05-04T10:36:22.925Z,0.50
2023-05-04T10:37:22.965Z,0.51
2023-05-04T10:38:23.926Z,0.52
2023-05-04T10:39:23.983Z,0.56
2023-05-04T10:40:22.978Z,0.58
2023-05-04T10:41:24.003Z,0.56
2023-05-04T10:42:23.245Z,0.53
2023-05-04T10:43:23.088Z,0.54
2023-05-04T10:44:23.116Z,0.55
2023-05-04T10:45:24.233Z,0.57
2023-05-04T10:46:23.182Z,0.59
2023-05-04T10:47:23.245Z,0.61
2023-05-04T10:48:24.228Z,0.61
2023-05-04T10:49:23.239Z,0.60
2023-05-04T10:50:24.266Z,0.58
2023-05-04T10:51:26.536Z,0.55
2023-05-04T10:52:24.302Z,0.51
2023-05-04T10:53:24.291Z,0.51
2023-05-04T10:54:24.287Z,0.48
2023-05-04T10:55:24.369Z,0.48
2023-05-04T10:56:24.285Z,0.49
2023-05-04T10:57:24.272Z,0.51
2023-05-04T10:58:24.248Z,0.53
2023-05-04T10:59:24.254Z,0.52
2023-05-04T11:00:24.318Z,0.51
2023-05-04T11:01:24.312Z,0.52
2023-05-04T11:02:24.401Z,0.53
2023-05-04T11:03:23.296Z,0.54
2023-05-04T11:04:23.218Z,0.58
2023-05-04T11:05:23.210Z,0.60
2023-05-04T11:06:24.553Z,0.60
2023-05-04T11:07:24.275Z,0.63
2023-05-04T11:08:23.181Z,0.60
2023-05-04T11:09:23.171Z,0.62
2023-05-04T11:10:24.257Z,0.66
2023-05-04T11:11:24.233Z,0.65
2023-05-04T11:12:23.180Z,0.58
2023-05-04T11:13:24.290Z,0.59
2023-05-04T11:14:24.156Z,0.55
2023-05-04T11:15:24.244Z,0.52
2023-05-04T11:16:24.256Z,0.50
2023-05-04T11:17:28.620Z,0.52
2023-05-04T11:18:23.440Z,0.52
2023-05-04T11:19:23.455Z,0.53
2023-05-04T11:20:24.491Z,0.55
2023-05-04T11:21:23.429Z,0.61
2023-05-04T11:22:23.507Z,0.67
2023-05-04T11:23:24.514Z,0.65
2023-05-04T11:24:24.523Z,0.65
2023-05-04T11:25:23.570Z,0.63
2023-05-04T11:26:24.549Z,0.69
2023-05-04T11:27:24.641Z,0.64
2023-05-04T11:28:23.528Z,0.60
2023-05-04T11:29:24.610Z,0.60
2023-05-04T11:30:23.611Z,0.64
2023-05-04T11:31:24.666Z,0.64
2023-05-04T11:32:24.948Z,0.60
2023-05-04T11:33:24.689Z,0.59
2023-05-04T11:34:23.674Z,0.56
2023-05-04T11:35:23.630Z,0.57
2023-05-04T11:36:24.736Z,0.53
2023-05-04T11:37:23.792Z,0.50
2023-05-04T11:38:24.716Z,0.52
2023-05-04T11:39:23.744Z,0.50
2023-05-04T11:40:23.791Z,0.53
2023-05-04T11:41:23.735Z,0.52
2023-05-04T11:42:24.893Z,0.52
2023-05-04T11:43:23.845Z,0.51
2023-05-04T11:44:23.825Z,0.51
2023-05-04T11:45:23.838Z,0.47
2023-05-04T11:46:23.874Z,0.54
2023-05-04T11:47:23.881Z,0.61
2023-05-04T11:48:24.981Z,0.65
2023-05-04T11:49:24.930Z,0.65
2023-05-04T11:50:23.912Z,0.65
2023-05-04T11:51:23.902Z,0.68
2023-05-04T11:52:23.966Z,0.71
2023-05-04T11:53:25.045Z,0.73
2023-05-04T11:54:24.055Z,0.83
2023-05-04T11:55:23.976Z,0.85
2023-05-04T11:56:23.993Z,0.88
2023-05-04T11:57:25.135Z,0.90
2023-05-04T11:58:24.027Z,0.96
2023-05-04T11:59:25.016Z,1.00
2023-05-04T12:00:24.089Z,0.92
2023-05-04T12:01:24.089Z,0.83
2023-05-04T12:02:24.223Z,0.90
2023-05-04T12:03:25.931Z,1.07
2023-05-04T12:04:25.169Z,1.09
2023-05-04T12:05:24.145Z,1.12
2023-05-04T12:06:24.037Z,0.98
2023-05-04T12:07:24.114Z,0.91
2023-05-04T12:08:24.123Z,0.90
2023-05-04T12:09:25.060Z,0.98
2023-05-04T12:10:24.000Z,0.98
2023-05-04T12:11:24.977Z,0.99
2023-05-04T12:12:25.096Z,1.01
2023-05-04T12:13:24.101Z,0.91
2023-05-04T12:14:23.972Z,0.69
2023-05-04T12:15:24.032Z,0.75
2023-05-04T12:16:24.005Z,0.79
2023-05-04T12:17:24.067Z,0.65
2023-05-04T12:18:24.929Z,0.77
2023-05-04T12:19:24.973Z,0.75
2023-05-04T12:20:24.025Z,0.77
2023-05-04T12:21:23.922Z,0.89
2023-05-04T12:22:24.972Z,0.82
2023-05-04T12:23:23.892Z,0.85
2023-05-04T12:24:25.073Z,0.73
2023-05-04T12:25:23.909Z,0.70
2023-05-04T12:26:23.904Z,0.77
2023-05-04T12:27:23.870Z,0.79
2023-05-04T12:28:24.947Z,0.73
2023-05-04T12:29:23.906Z,0.75
2023-05-04T12:30:24.852Z,0.69
2023-05-04T12:31:25.254Z,0.54
2023-05-04T12:32:24.959Z,0.59
2023-05-04T12:33:23.842Z,0.67
2023-05-04T12:34:24.935Z,0.74
2023-05-04T12:35:23.810Z,0.68
2023-05-04T12:36:24.916Z,0.63
2023-05-04T12:37:25.105Z,0.61
2023-05-04T12:38:23.845Z,0.61
2023-05-04T12:39:24.881Z,0.68
2023-05-04T12:40:28.690Z,0.61
2023-05-04T12:41:24.874Z,0.60
2023-05-04T12:42:23.771Z,0.61
2023-05-04T12:43:23.836Z,0.63
2023-05-04T12:44:23.808Z,0.70
2023-05-04T12:45:24.955Z,0.55
2023-05-04T12:46:23.868Z,0.53
2023-05-04T12:47:23.764Z,0.50
2023-05-04T12:48:23.725Z,0.74
2023-05-04T12:49:24.972Z,0.76
2023-05-04T12:50:24.726Z,0.71
2023-05-04T12:51:23.770Z,0.78
2023-05-04T12:52:23.826Z,0.77
2023-05-04T12:53:23.846Z,0.79
2023-05-04T12:54:23.800Z,0.68
2023-05-04T12:55:25.289Z,0.63
2023-05-04T12:56:24.748Z,0.66
2023-05-04T12:57:23.753Z,0.68
2023-05-04T12:58:23.655Z,0.76
2023-05-04T12:59:23.702Z,0.62
2023-05-04T13:00:23.664Z,0.59
2023-05-04T13:01:23.682Z,0.51
2023-05-04T13:02:24.817Z,0.54
2023-05-04T13:03:24.736Z,0.50
2023-05-04T13:04:23.713Z,0.55
2023-05-04T13:05:23.702Z,0.34
2023-05-04T13:06:23.647Z,0.56
2023-05-04T13:07:23.686Z,0.62
2023-05-04T13:08:23.690Z,0.69
2023-05-04T13:09:23.633Z,0.64
2023-05-04T13:10:23.585Z,0.70
2023-05-04T13:11:23.610Z,0.70
2023-05-04T13:12:24.621Z,0.58
2023-05-04T13:13:23.770Z,0.60
2023-05-04T13:14:24.555Z,0.68
2023-05-04T13:15:23.611Z,0.64
2023-05-04T13:16:23.634Z,0.71
2023-05-04T13:17:23.566Z,0.71
2023-05-04T13:18:24.544Z,0.43
2023-05-04T13:19:23.516Z,0.57
2023-05-04T13:20:24.586Z,0.77
2023-05-04T13:21:23.563Z,0.68
2023-05-04T13:22:23.538Z,0.66
2023-05-04T13:23:24.898Z,0.75
2023-05-04T13:24:25.353Z,0.82
2023-05-04T13:25:23.551Z,0.83
2023-05-04T13:26:24.471Z,0.90
2023-05-04T13:27:23.546Z,0.79
2023-05-04T13:28:24.550Z,0.80
2023-05-04T13:29:24.529Z,0.87
2023-05-04T13:30:23.496Z,0.87
2023-05-04T13:31:23.600Z,0.78
2023-05-04T13:32:23.498Z,0.78
2023-05-04T13:34:23.585Z,0.86
2023-05-04T13:35:24.516Z,0.86
2023-05-04T13:36:23.548Z,0.89
2023-05-04T13:37:23.520Z,0.86
2023-05-04T13:38:23.511Z,1.02
2023-05-04T13:39:24.439Z,0.98
2023-05-04T13:40:23.557Z,0.83
2023-05-04T13:41:23.425Z,1.06
2023-05-04T13:42:24.477Z,0.91
2023-05-04T13:43:23.493Z,0.93
2023-05-04T13:44:23.509Z,0.87
2023-05-04T13:45:23.474Z,0.86
2023-05-04T13:46:23.466Z,0.94
2023-05-04T13:47:23.397Z,0.93
2023-05-04T13:48:24.481Z,0.96
2023-05-04T13:49:23.411Z,0.84
2023-05-04T13:50:23.472Z,0.88
2023-05-04T13:51:23.372Z,0.80
2023-05-04T13:52:23.412Z,0.81
2023-05-04T13:53:24.447Z,0.80
2023-05-04T13:54:23.391Z,0.82
2023-05-04T13:55:23.411Z,0.79
2023-05-04T13:56:24.384Z,0.80
2023-05-04T13:57:23.414Z,0.75
2023-05-04T13:58:24.444Z,0.77
2023-05-04T13:59:24.370Z,0.79
2023-05-04T14:00:23.304Z,0.89
2023-05-04T14:01:24.523Z,0.96
2023-05-04T14:02:24.484Z,0.86
2023-05-04T14:03:24.454Z,0.77
2023-05-04T14:04:23.292Z,0.77
2023-05-04T14:05:24.328Z,0.76
2023-05-04T14:06:23.255Z,0.70
2023-05-04T14:07:24.346Z,0.74
2023-05-04T14:08:23.336Z,0.82
2023-05-04T14:09:23.314Z,0.88
2023-05-04T14:10:23.305Z,0.69
2023-05-04T14:11:24.308Z,0.70
2023-05-04T14:12:23.335Z,0.65
2023-05-04T14:13:23.264Z,0.77
2023-05-04T14:14:24.260Z,0.83
2023-05-04T14:15:24.290Z,0.80
2023-05-04T14:16:23.319Z,0.77
2023-05-04T14:17:24.289Z,0.70
2023-05-04T14:18:23.359Z,0.66
2023-05-04T14:19:24.264Z,0.73
2023-05-04T14:20:23.266Z,0.87
2023-05-04T14:21:23.319Z,0.89
2023-05-04T14:22:24.230Z,0.82
2023-05-04T14:23:23.149Z,0.82
2023-05-04T14:24:24.145Z,0.89
2023-05-04T14:25:24.235Z,0.86
2023-05-04T14:26:23.216Z,0.86
2023-05-04T14:27:23.191Z,0.85
2023-05-04T14:28:23.262Z,0.78
2023-05-04T14:29:23.115Z,0.77
2023-05-04T14:30:24.211Z,0.79
2023-05-04T14:31:23.190Z,0.80
2023-05-04T14:32:23.182Z,0.88
2023-05-04T14:33:23.148Z,0.92
2023-05-04T14:34:23.106Z,0.92
2023-05-04T14:35:23.067Z,0.87
2023-05-04T14:36:23.095Z,0.85
2023-05-04T14:37:24.119Z,0.86
2023-05-04T14:38:23.040Z,0.80
2023-05-04T14:39:23.183Z,0.76
2023-05-04T14:40:23.041Z,0.68
2023-05-04T14:41:24.036Z,0.56
2023-05-04T14:42:24.035Z,0.60
2023-05-04T14:43:24.021Z,0.64
2023-05-04T14:44:24.169Z,0.62
2023-05-04T14:45:23.103Z,0.74
2023-05-04T14:46:23.118Z,0.69
2023-05-04T14:47:23.107Z,0.68
2023-05-04T14:48:23.052Z,0.70
2023-05-04T14:49:35.967Z,0.69
2023-05-04T14:50:24.076Z,0.64
2023-05-04T14:51:24.131Z,0.69
2023-05-04T14:52:23.116Z,0.69
2023-05-04T14:53:24.101Z,0.71
2023-05-04T14:54:24.118Z,0.76
2023-05-04T14:55:24.142Z,0.73
2023-05-04T14:56:23.113Z,0.73
2023-05-04T14:57:23.086Z,0.80
2023-05-04T14:58:23.133Z,0.79
2023-05-04T14:59:23.017Z,0.74
2023-05-04T15:00:23.129Z,0.74
2023-05-04T15:01:23.154Z,0.81
2023-05-04T15:02:24.019Z,0.80
2023-05-04T15:03:24.181Z,0.80
2023-05-04T15:04:23.081Z,0.77
2023-05-04T15:05:22.987Z,0.93
2023-05-04T15:06:22.960Z,0.93
2023-05-04T15:07:23.969Z,0.89
2023-05-04T15:08:22.950Z,1.02
2023-05-04T15:09:24.086Z,1.11
2023-05-04T15:10:22.947Z,1.05
2023-05-04T15:11:22.939Z,1.18
2023-05-04T15:12:24.015Z,1.16
2023-05-04T15:13:22.921Z,1.08
2023-05-04T15:14:23.996Z,1.18
2023-05-04T15:15:23.114Z,1.22
2023-05-04T15:16:23.162Z,1.27
2023-05-04T15:17:24.191Z,1.35
2023-05-04T15:18:24.184Z,1.37
2023-05-04T15:19:24.249Z,1.50
2023-05-04T15:20:23.342Z,1.58
2023-05-04T15:21:24.355Z,1.50
2023-05-04T15:22:23.445Z,1.46
2023-05-04T15:23:24.469Z,1.34
2023-05-04T15:24:23.534Z,1.43
2023-05-04T15:25:23.642Z,1.33
2023-05-04T15:26:23.675Z,1.42
2023-05-04T15:27:24.765Z,1.34
2023-05-04T15:28:23.712Z,1.51
2023-05-04T15:29:24.779Z,1.49
